Time;durP1;ratioP1;P1;durP2;ratioP2;P2;SDS_P1;SDS_P2;PMS_P1;PMS_P2;Temp;Humidity;BMP_temperature;BMP_pressure;BME280_temperature;BME280_humidity;BME280_pressure;Samples;Min_cycle;Max_cycle;Signal;HPM_P1;HPM_P2
2022/08/17 00:01:44;;;;;;;10.02;9.13;;;24.20;59.80;;;;;;5066070;28;20059;-49
2022/08/17 00:04:21;;;;;;;10.05;9.15;;;24.20;59.80;;;;;;5083460;28;20094;-51
2022/08/17 00:06:50;;;;;;;9.52;8.73;;;24.10;59.70;;;;;;5086569;28;20040;-48
2022/08/17 00:09:17;;;;;;;9.98;9.07;;;24.10;59.60;;;;;;5089940;28;20044;-49
2022/08/17 00:11:53;;;;;;;10.05;9.25;;;24.10;59.60;;;;;;5065859;28;20048;-47
2022/08/17 00:14:39;;;;;;;9.63;8.90;;;24.10;59.60;;;;;;5071959;28;20136;-48
2022/08/17 00:17:08;;;;;;;10.00;9.10;;;24.10;59.60;;;;;;5088739;28;20040;-51
2022/08/17 00:19:35;;;;;;;10.32;9.43;;;24.10;59.90;;;;;;5076534;28;20106;-51
2022/08/17 00:22:06;;;;;;;9.18;8.38;;;24.10;59.80;;;;;;5076085;28;20499;-50
2022/08/17 00:24:53;;;;;;;10.35;9.38;;;24.00;59.60;;;;;;5081047;28;20561;-47
2022/08/17 00:27:22;;;;;;;9.00;8.10;;;24.00;59.70;;;;;;5089303;28;20036;-49
2022/08/17 00:29:50;;;;;;;9.45;8.65;;;24.00;59.70;;;;;;5074829;28;20053;-48
2022/08/17 00:32:17;;;;;;;10.07;9.23;;;24.00;59.80;;;;;;5080277;28;20098;-49
2022/08/17 00:35:06;;;;;;;9.68;8.82;;;23.90;59.80;;;;;;5087388;28;20123;-48
2022/08/17 00:37:33;;;;;;;9.05;8.25;;;24.00;60.10;;;;;;5082131;28;20053;-47
2022/08/17 00:40:02;;;;;;;8.88;8.18;;;23.90;59.70;;;;;;5064099;28;20044;-48
2022/08/17 00:42:31;;;;;;;9.98;9.02;;;23.80;59.60;;;;;;5077986;28;20052;-51
2022/08/17 00:45:03;;;;;;;8.75;8.05;;;23.80;59.60;;;;;;5086139;28;20090;-48
2022/08/17 00:47:32;;;;;;;9.50;8.70;;;23.80;59.60;;;;;;5081936;28;20445;-48
2022/08/17 00:50:01;;;;;;;9.80;8.88;;;23.80;59.50;;;;;;5068913;28;20098;-48
2022/08/17 00:52:43;;;;;;;9.95;9.15;;;24.00;59.60;;;;;;5081532;28;20044;-48
2022/08/17 00:55:13;;;;;;;9.55;8.75;;;23.70;59.70;;;;;;5089333;28;20048;-53
2022/08/17 00:57:47;;;;;;;9.85;8.95;;;23.70;59.60;;;;;;5068983;28;20049;-49
2022/08/17 01:00:31;;;;;;;9.80;8.85;;;23.70;59.80;;;;;;5069544;28;20048;-48
2022/08/17 01:03:05;;;;;;;9.88;8.90;;;23.60;59.80;;;;;;5086466;28;20040;-48
2022/08/17 01:05:33;;;;;;;10.00;9.07;;;23.60;59.70;;;;;;5088961;28;20040;-50
2022/08/17 01:08:04;;;;;;;10.77;9.77;;;23.50;59.60;;;;;;5070866;28;20045;-48
2022/08/17 01:10:43;;;;;;;10.30;9.38;;;23.50;59.70;;;;;;5080979;28;20494;-52
2022/08/17 01:13:49;;;;;;;10.55;9.55;;;23.50;60.20;;;;;;5055326;28;20405;-49
2022/08/17 01:16:25;;;;;;;10.48;9.48;;;23.40;60.10;;;;;;5073995;28;20454;-49
2022/08/17 01:18:59;;;;;;;11.20;10.18;;;23.40;60.40;;;;;;5080328;28;20059;-51
2022/08/17 01:21:32;;;;;;;9.95;9.07;;;23.40;60.40;;;;;;5074406;28;20044;-48
2022/08/17 01:24:00;;;;;;;11.00;10.10;;;23.30;59.80;;;;;;5088307;28;20729;-47
2022/08/17 01:26:31;;;;;;;10.95;9.98;;;23.30;59.80;;;;;;5081392;28;20048;-52
2022/08/17 01:29:02;;;;;;;11.00;10.00;;;23.20;60.00;;;;;;5081333;28;20040;-47
2022/08/17 01:31:37;;;;;;;10.80;9.80;;;23.20;60.00;;;;;;5064152;28;20470;-50
2022/08/17 01:34:07;;;;;;;10.88;9.98;;;23.20;60.10;;;;;;5086707;28;20523;-49
2022/08/17 01:36:38;;;;;;;11.52;10.43;;;23.20;60.10;;;;;;5062633;28;20091;-48
2022/08/17 01:39:14;;;;;;;10.35;9.45;;;23.10;60.30;;;;;;5061163;28;20506;-50
2022/08/17 01:41:43;;;;;;;10.38;9.55;;;23.10;60.10;;;;;;5071985;28;20676;-51
2022/08/17 01:44:11;;;;;;;9.93;9.07;;;23.10;60.00;;;;;;5078168;28;20067;-50
2022/08/17 01:46:38;;;;;;;11.18;10.18;;;23.00;60.00;;;;;;5088997;28;20059;-49
2022/08/17 01:49:12;;;;;;;11.20;10.18;;;22.90;60.00;;;;;;5086475;28;20342;-49
2022/08/17 01:51:39;;;;;;;11.38;10.32;;;22.90;60.40;;;;;;5069521;28;20060;-49
2022/08/17 01:54:11;;;;;;;11.93;10.73;;;22.90;60.10;;;;;;5073269;28;20067;-49
2022/08/17 01:56:42;;;;;;;10.80;9.90;;;22.90;60.40;;;;;;5076736;28;20075;-49
2022/08/17 01:59:19;;;;;;;11.10;10.00;;;22.80;60.20;;;;;;5080656;28;20040;-52
2022/08/17 02:01:48;;;;;;;10.75;9.85;;;22.80;60.20;;;;;;5081932;28;20041;-47
2022/08/17 02:04:14;;;;;;;10.98;10.07;;;22.80;60.20;;;;;;5082245;28;20041;-48
2022/08/17 02:06:45;;;;;;;9.80;8.85;;;22.70;61.00;;;;;;5081819;28;20044;-49
2022/08/17 02:09:25;;;;;;;10.30;9.35;;;22.70;60.40;;;;;;5078180;28;20107;-50
2022/08/17 02:11:58;;;;;;;9.57;8.77;;;22.70;60.80;;;;;;5075957;28;20071;-50
2022/08/17 02:14:25;;;;;;;10.52;9.43;;;22.70;60.40;;;;;;5076396;28;20048;-48
2022/08/17 02:16:53;;;;;;;10.75;9.75;;;22.70;60.40;;;;;;5080887;28;20044;-48
2022/08/17 02:19:20;;;;;;;11.57;10.23;;;22.70;60.40;;;;;;5088916;28;20040;-48
2022/08/17 02:21:51;;;;;;;10.85;9.90;;;22.60;60.60;;;;;;5077168;28;20048;-50
2022/08/17 02:24:31;;;;;;;11.80;10.68;;;22.60;60.90;;;;;;5082074;28;20036;-51
2022/08/17 02:27:24;;;;;;;10.38;9.35;;;22.60;61.20;;;;;;5049730;28;20067;-49
2022/08/17 02:29:51;;;;;;;9.98;9.10;;;22.60;60.90;;;;;;5056588;28;20097;-50
2022/08/17 02:32:21;;;;;;;10.10;9.27;;;22.60;60.90;;;;;;5073301;28;20385;-48
2022/08/17 02:34:57;;;;;;;10.32;9.43;;;22.60;61.00;;;;;;5078857;28;20097;-51
2022/08/17 02:37:25;;;;;;;10.93;9.88;;;22.70;61.10;;;;;;5088358;28;20052;-50
2022/08/17 02:39:55;;;;;;;10.85;9.65;;;22.50;60.90;;;;;;5075167;28;20065;-49
2022/08/17 02:42:31;;;;;;;10.55;9.65;;;22.50;61.00;;;;;;5066772;28;20043;-50
2022/08/17 02:45:04;;;;;;;10.35;9.45;;;22.50;61.50;;;;;;5058488;28;20083;-48
2022/08/17 02:47:36;;;;;;;10.25;9.25;;;22.50;61.10;;;;;;5088225;28;20115;-49
2022/08/17 02:50:08;;;;;;;9.48;8.68;;;22.50;61.20;;;;;;5079834;28;20447;-50
2022/08/17 02:52:42;;;;;;;9.38;8.60;;;22.50;61.10;;;;;;5080176;28;20097;-52
2022/08/17 02:55:23;;;;;;;9.82;8.93;;;22.50;61.10;;;;;;5079550;28;20036;-50
2022/08/17 02:57:52;;;;;;;10.50;9.20;;;22.50;61.40;;;;;;5070055;28;20094;-50
2022/08/17 03:00:25;;;;;;;10.63;9.48;;;22.40;60.90;;;;;;5074169;28;20150;-48
2022/08/17 03:02:52;;;;;;;10.88;9.70;;;22.40;61.20;;;;;;5076685;28;20040;-50
2022/08/17 03:05:26;;;;;;;9.48;8.68;;;22.40;61.10;;;;;;5067958;28;20115;-52
2022/08/17 03:07:53;;;;;;;11.05;10.02;;;22.40;61.30;;;;;;5062638;28;20063;-50
2022/08/17 03:10:20;;;;;;;10.30;9.50;;;22.40;61.10;;;;;;5064895;28;20039;-52
2022/08/17 03:12:48;;;;;;;10.32;9.43;;;22.40;61.20;;;;;;5070377;28;20044;-48
2022/08/17 03:15:21;;;;;;;11.35;10.07;;;22.40;61.40;;;;;;5072631;28;20072;-50
2022/08/17 03:17:48;;;;;;;11.23;10.15;;;22.40;61.70;;;;;;5079081;28;20524;-48
2022/08/17 03:20:19;;;;;;;12.50;11.25;;;22.40;61.70;;;;;;5089233;28;20040;-51
2022/08/17 03:22:50;;;;;;;11.00;9.90;;;22.40;62.00;;;;;;5073403;28;20416;-48
2022/08/17 03:25:28;;;;;;;11.20;10.20;;;22.40;62.10;;;;;;5078715;28;20047;-48
2022/08/17 03:27:59;;;;;;;10.82;9.82;;;22.40;62.20;;;;;;5072793;28;20199;-49
2022/08/17 03:30:27;;;;;;;10.73;9.73;;;22.40;62.40;;;;;;5082901;28;20048;-48
2022/08/17 03:32:58;;;;;;;12.32;11.15;;;22.40;62.40;;;;;;5084163;28;20548;-49
2022/08/17 03:35:29;;;;;;;10.73;9.82;;;22.40;62.80;;;;;;5082679;28;20048;-48
2022/08/17 03:37:57;;;;;;;10.90;9.90;;;22.50;63.20;;;;;;5068155;28;20090;-51
2022/08/17 03:40:30;;;;;;;13.48;10.88;;;22.50;63.10;;;;;;5074467;28;20049;-48
2022/08/17 03:43:20;;;;;;;10.60;9.60;;;22.50;63.10;;;;;;5067340;28;20424;-49
2022/08/17 03:57:14;;;;;;;11.65;10.65;;;22.70;63.00;;;;;;5081746;28;20052;-49
2022/08/17 03:59:44;;;;;;;11.75;10.68;;;22.70;62.90;;;;;;5067355;28;20099;-50
2022/08/17 04:02:29;;;;;;;11.25;10.25;;;22.60;62.80;;;;;;5066394;28;20055;-51
2022/08/17 04:04:59;;;;;;;11.00;9.95;;;22.70;63.40;;;;;;5053125;28;20039;-52
2022/08/17 04:07:28;;;;;;;11.38;10.18;;;22.70;62.80;;;;;;5076376;28;20108;-48
2022/08/17 04:09:56;;;;;;;11.23;9.68;;;22.70;63.00;;;;;;5079386;28;20037;-49
2022/08/17 04:12:28;;;;;;;10.07;9.07;;;22.70;62.90;;;;;;5069909;28;20048;-49
2022/08/17 04:15:00;;;;;;;10.87;9.90;;;22.70;63.00;;;;;;5082903;28;20039;-49
2022/08/17 04:17:28;;;;;;;12.37;10.93;;;22.70;62.90;;;;;;5082458;28;20044;-49
2022/08/17 04:19:55;;;;;;;12.30;11.18;;;22.70;63.00;;;;;;5084175;28;20094;-48
2022/08/17 04:22:23;;;;;;;12.32;11.27;;;22.70;63.10;;;;;;5082026;28;20098;-48
2022/08/17 04:25:08;;;;;;;12.40;11.25;;;22.70;63.30;;;;;;5069595;28;20493;-47
2022/08/17 04:27:35;;;;;;;11.75;10.63;;;22.80;64.00;;;;;;5071378;28;20049;-51
2022/08/17 04:30:05;;;;;;;12.45;11.32;;;22.70;63.60;;;;;;5066966;28;20089;-51
2022/08/17 04:32:48;;;;;;;12.55;11.27;;;22.70;63.70;;;;;;5063329;28;20056;-51
2022/08/17 04:35:39;;;;;;;11.38;10.38;;;22.70;63.70;;;;;;5074303;28;20059;-52
2022/08/17 04:38:09;;;;;;;12.82;11.68;;;22.70;63.80;;;;;;5071446;28;20048;-48
2022/08/17 04:43:24;;;;;;;11.18;10.25;;;22.80;63.70;;;;;;5067362;28;20507;-51
2022/08/17 04:45:57;;;;;;;11.00;10.00;;;22.80;63.80;;;;;;5082046;28;20562;-50
2022/08/17 04:48:36;;;;;;;11.88;10.77;;;22.80;63.50;;;;;;5050266;28;20045;-48
2022/08/17 04:51:09;;;;;;;11.27;10.18;;;22.80;63.00;;;;;;5048747;28;20044;-50
2022/08/17 04:53:41;;;;;;;12.10;10.88;;;22.80;63.20;;;;;;5068344;28;20408;-49
2022/08/17 04:56:09;;;;;;;12.95;9.68;;;22.80;63.10;;;;;;5079840;28;20059;-53
2022/08/17 04:58:44;;;;;;;11.65;10.38;;;22.80;63.40;;;;;;5089952;28;20052;-48
2022/08/17 05:01:11;;;;;;;11.65;9.88;;;22.90;63.60;;;;;;5078541;28;20531;-52
2022/08/17 05:03:42;;;;;;;10.48;9.43;;;22.90;63.60;;;;;;5063393;28;20408;-50
2022/08/17 05:06:09;;;;;;;11.65;10.18;;;22.90;63.80;;;;;;5080523;28;20052;-48
2022/08/17 05:08:36;;;;;;;11.63;8.95;;;22.90;63.80;;;;;;5089766;28;20036;-52
2022/08/17 05:11:02;;;;;;;11.48;9.05;;;23.00;63.60;;;;;;5073098;28;20052;-49
2022/08/17 05:13:29;;;;;;;10.90;9.40;;;23.00;63.80;;;;;;5077583;28;20186;-48
2022/08/17 05:15:59;;;;;;;9.85;8.77;;;23.00;62.50;;;;;;5078182;28;20068;-47
2022/08/17 05:18:27;;;;;;;10.43;8.52;;;23.00;62.40;;;;;;5090332;28;20048;-52
2022/08/17 05:20:55;;;;;;;10.00;9.13;;;23.10;62.50;;;;;;5080267;28;20128;-48
2022/08/17 05:23:24;;;;;;;12.07;8.35;;;23.10;61.80;;;;;;5084294;28;20504;-51
2022/08/17 05:25:53;;;;;;;12.38;8.52;;;23.10;61.90;;;;;;5076332;28;20090;-48
2022/08/17 05:28:21;;;;;;;9.68;8.60;;;23.20;61.70;;;;;;5075014;28;20040;-51
2022/08/17 05:30:53;;;;;;;11.27;7.57;;;23.20;61.40;;;;;;5082914;28;20040;-52
2022/08/17 05:33:24;;;;;;;9.43;8.48;;;23.20;60.60;;;;;;5076897;28;20044;-49
2022/08/17 05:35:53;;;;;;;10.77;8.27;;;23.20;60.40;;;;;;5080785;28;20111;-51
2022/08/17 05:38:22;;;;;;;12.55;8.75;;;23.30;60.60;;;;;;5056715;28;20049;-52
2022/08/17 05:40:49;;;;;;;10.70;9.57;;;23.30;60.90;;;;;;5072677;28;20511;-52
2022/08/17 05:43:20;;;;;;;10.68;9.68;;;23.40;59.90;;;;;;5083391;28;20063;-49
2022/08/17 05:45:56;;;;;;;10.65;9.60;;;23.40;60.00;;;;;;5093464;28;20047;-48
2022/08/17 05:48:23;;;;;;;11.57;10.45;;;23.50;60.00;;;;;;5077088;28;20100;-52
2022/08/17 05:51:36;;;;;;;12.10;10.82;;;23.60;59.70;;;;;;5081755;28;20036;-51
2022/08/17 05:54:38;;;;;;;10.70;9.70;;;23.60;59.40;;;;;;5090169;28;20048;-50
2022/08/17 05:57:29;;;;;;;12.18;10.57;;;23.70;59.80;;;;;;5084998;28;22474;-48
2022/08/17 06:00:27;;;;;;;12.15;10.88;;;23.80;59.90;;;;;;5087967;28;20562;-47
2022/08/17 06:03:40;;;;;;;11.25;10.25;;;23.90;59.20;;;;;;5065769;28;20417;-51
2022/08/17 06:06:22;;;;;;;11.18;10.05;;;23.80;59.40;;;;;;5001239;28;20777;-48
2022/08/17 06:09:06;;;;;;;11.55;10.35;;;23.90;59.20;;;;;;5007464;28;20041;-49
2022/08/17 06:11:37;;;;;;;12.10;10.77;;;24.00;59.30;;;;;;5060012;28;20117;-52
2022/08/17 06:14:34;;;;;;;12.88;11.25;;;24.00;59.30;;;;;;5084075;28;20078;-52
2022/08/17 06:17:10;;;;;;;13.73;11.02;;;24.00;59.30;;;;;;5075818;28;20041;-50
2022/08/17 06:19:43;;;;;;;11.73;10.65;;;24.10;59.00;;;;;;5082083;28;20057;-51
2022/08/17 06:22:14;;;;;;;12.68;11.23;;;24.10;59.00;;;;;;5090803;28;20048;-48
2022/08/17 06:24:50;;;;;;;11.35;10.25;;;24.20;59.00;;;;;;5059871;28;20099;-48
2022/08/17 06:27:41;;;;;;;10.98;10.00;;;24.20;58.90;;;;;;5084697;28;20711;-51
2022/08/17 06:30:24;;;;;;;11.15;10.20;;;24.20;58.80;;;;;;5090164;28;20094;-52
2022/08/17 06:32:53;;;;;;;12.63;10.32;;;24.30;58.90;;;;;;5080202;28;20067;-48
2022/08/17 06:35:43;;;;;;;13.90;11.00;;;24.30;58.80;;;;;;5060432;28;20154;-51
2022/08/17 06:38:18;;;;;;;11.25;9.40;;;24.40;58.90;;;;;;5064970;28;20091;-50
2022/08/17 06:41:15;;;;;;;11.57;9.18;;;24.40;58.80;;;;;;5069644;28;20735;-48
2022/08/17 06:44:08;;;;;;;11.18;10.05;;;24.50;58.90;;;;;;5062317;28;20075;-50
2022/08/17 06:46:37;;;;;;;12.00;9.93;;;24.50;58.80;;;;;;5066742;28;20032;-48
2022/08/17 06:49:15;;;;;;;11.68;10.38;;;24.50;58.50;;;;;;5067178;28;20084;-47
2022/08/17 06:51:52;;;;;;;9.80;8.85;;;24.60;58.50;;;;;;5051852;28;20049;-49
2022/08/17 06:54:32;;;;;;;10.70;9.73;;;24.60;58.40;;;;;;5067093;28;20039;-49
2022/08/17 06:57:34;;;;;;;11.57;9.93;;;24.70;58.80;;;;;;5067910;28;20047;-51
2022/08/17 07:00:11;;;;;;;10.63;9.52;;;24.60;58.50;;;;;;5064700;28;20098;-51
2022/08/17 07:02:47;;;;;;;11.25;10.15;;;24.70;58.50;;;;;;5066488;28;20496;-47
2022/08/17 07:05:23;;;;;;;11.45;10.35;;;24.60;58.40;;;;;;5073407;28;20501;-50
2022/08/17 07:08:06;;;;;;;11.52;10.43;;;24.60;58.50;;;;;;5067067;28;20033;-49
2022/08/17 07:10:40;;;;;;;12.32;11.13;;;24.70;58.80;;;;;;5073210;28;20055;-50
2022/08/17 07:13:20;;;;;;;11.50;10.43;;;24.60;58.90;;;;;;5080242;28;20040;-52
2022/08/17 07:15:49;;;;;;;13.27;11.57;;;24.60;58.90;;;;;;5082739;28;20049;-49
2022/08/17 07:18:24;;;;;;;11.93;10.73;;;24.70;59.00;;;;;;5051146;28;20106;-50
2022/08/17 07:20:57;;;;;;;12.98;11.73;;;24.70;59.10;;;;;;5057219;28;20080;-48
2022/08/17 07:24:21;;;;;;;12.23;11.18;;;24.70;59.30;;;;;;5067539;28;20557;-52
2022/08/17 07:27:31;;;;;;;12.73;11.38;;;24.70;59.10;;;;;;5000951;28;20046;-48
2022/08/17 07:30:04;;;;;;;13.18;11.98;;;24.70;59.10;;;;;;5000728;28;20046;-52
2022/08/17 07:32:56;;;;;;;12.55;11.30;;;24.80;59.10;;;;;;5057773;28;20132;-52
2022/08/17 07:35:29;;;;;;;13.43;12.18;;;24.80;59.30;;;;;;5070223;28;20051;-51
2022/08/17 07:38:28;;;;;;;14.07;12.68;;;24.80;59.20;;;;;;5090815;28;20056;-52
2022/08/17 07:41:03;;;;;;;13.55;11.82;;;24.90;59.30;;;;;;5075908;28;20182;-47
2022/08/17 07:43:46;;;;;;;13.15;11.95;;;24.90;59.20;;;;;;5083132;28;20074;-51
2022/08/17 07:49:09;;;;;;;14.68;13.23;;;25.00;59.30;;;;;;5075654;28;20102;-52
2022/08/17 07:51:41;;;;;;;17.02;15.20;;;25.10;59.00;;;;;;5074513;28;20059;-50
2022/08/17 07:54:14;;;;;;;17.33;14.47;;;25.20;58.60;;;;;;5079800;28;20040;-50
2022/08/17 07:56:49;;;;;;;16.63;15.02;;;25.30;58.70;;;;;;5050447;28;20059;-49
2022/08/17 07:59:23;;;;;;;16.88;15.10;;;25.30;58.30;;;;;;5055915;28;20570;-48
2022/08/17 08:01:56;;;;;;;16.92;15.45;;;25.50;58.30;;;;;;5069906;28;20123;-51
2022/08/17 08:04:33;;;;;;;18.55;16.75;;;25.50;58.20;;;;;;5062465;28;20045;-48
2022/08/17 08:07:20;;;;;;;17.65;16.15;;;25.60;58.20;;;;;;5066896;28;20074;-50
2022/08/17 08:10:18;;;;;;;20.55;18.35;;;25.70;58.10;;;;;;5069837;28;20496;-51
2022/08/17 08:12:47;;;;;;;20.17;18.05;;;25.70;57.90;;;;;;5073318;28;20044;-51
2022/08/17 08:15:21;;;;;;;19.05;16.67;;;25.80;57.80;;;;;;5049571;28;20044;-49
2022/08/17 08:17:57;;;;;;;21.77;19.58;;;25.80;58.00;;;;;;5067598;28;20063;-48
2022/08/17 08:20:44;;;;;;;20.90;18.90;;;25.90;57.50;;;;;;5078356;28;20454;-51
2022/08/17 08:23:21;;;;;;;26.58;21.00;;;26.00;57.60;;;;;;5073390;28;20130;-48
2022/08/17 08:26:30;;;;;;;23.02;20.83;;;26.10;57.20;;;;;;5060393;22;20046;-50
2022/08/17 08:29:18;;;;;;;23.30;19.52;;;26.10;57.20;;;;;;5031956;28;20045;-46
2022/08/17 08:32:15;;;;;;;23.10;19.98;;;26.20;57.40;;;;;;5027453;28;20039;-46
2022/08/17 08:35:07;;;;;;;22.20;19.63;;;26.40;57.30;;;;;;5012797;28;20112;-47
2022/08/17 08:38:06;;;;;;;19.00;17.00;;;26.50;57.30;;;;;;5006832;28;20506;-47
2022/08/17 08:40:48;;;;;;;17.60;16.05;;;26.50;57.30;;;;;;5008837;28;20037;-46
2022/08/17 08:43:35;;;;;;;;;;;26.60;56.90;;;;;;5010135;28;20042;-46
2022/08/17 08:46:10;;;;;;;17.23;15.65;;;26.70;57.00;;;;;;5012245;28;19953;-47
2022/08/17 08:48:43;;;;;;;19.20;17.27;;;26.80;56.60;;;;;;5018950;28;20042;-48
2022/08/17 08:51:34;;;;;;;20.67;17.85;;;26.90;56.30;;;;;;5014237;28;20073;-46
2022/08/17 08:54:35;;;;;;;19.30;17.40;;;26.90;56.70;;;;;;4973070;28;20053;-51
2022/08/17 08:57:04;;;;;;;20.40;18.40;;;26.90;56.30;;;;;;5003845;28;20061;-51
2022/08/17 09:00:08;;;;;;;19.60;17.80;;;26.90;56.10;;;;;;5010840;28;20066;-49
2022/08/17 09:03:09;;;;;;;20.00;17.95;;;26.90;56.00;;;;;;5008673;28;20418;-47
2022/08/17 09:05:54;;;;;;;18.38;16.60;;;26.90;56.00;;;;;;5009874;28;20038;-50
2022/08/17 09:08:35;;;;;;;15.77;14.30;;;26.90;56.00;;;;;;5019726;28;20137;-50
2022/08/17 09:11:04;;;;;;;16.55;14.85;;;26.80;56.00;;;;;;5021681;28;20048;-49
2022/08/17 09:13:44;;;;;;;15.60;14.10;;;26.80;55.90;;;;;;5010985;28;20494;-49
2022/08/17 09:16:29;;;;;;;16.42;14.80;;;26.70;55.90;;;;;;5013817;28;20064;-47
2022/08/17 09:19:29;;;;;;;18.05;16.15;;;26.70;55.90;;;;;;5003761;28;20045;-51
2022/08/17 09:22:31;;;;;;;16.30;14.70;;;26.70;55.50;;;;;;5026387;28;20045;-51
2022/08/17 09:25:07;;;;;;;16.08;14.05;;;26.70;55.70;;;;;;4979616;28;20565;-51
2022/08/17 09:27:55;;;;;;;16.08;14.57;;;26.70;55.50;;;;;;5003972;28;20058;-50
2022/08/17 09:30:35;;;;;;;16.80;15.02;;;26.70;55.00;;;;;;5017652;28;20092;-51
2022/08/17 09:33:07;;;;;;;15.50;14.15;;;26.70;55.00;;;;;;5026459;28;20461;-51
2022/08/17 09:35:41;;;;;;;15.30;13.75;;;26.70;55.20;;;;;;5014179;28;20077;-50
2022/08/17 09:38:31;;;;;;;14.55;13.25;;;26.70;55.10;;;;;;5020272;28;20056;-50
2022/08/17 09:41:01;;;;;;;15.75;14.25;;;26.80;55.10;;;;;;5026846;28;20536;-51
2022/08/17 09:43:52;;;;;;;14.85;13.45;;;26.70;55.20;;;;;;5019462;28;20029;-48
2022/08/17 09:46:27;;;;;;;15.45;13.93;;;26.90;55.30;;;;;;5009290;28;20388;-51
2022/08/17 09:49:05;;;;;;;15.80;14.20;;;26.90;55.50;;;;;;5009289;28;20037;-51
2022/08/17 09:51:40;;;;;;;16.60;14.88;;;26.90;55.30;;;;;;5009814;28;20560;-50
2022/08/17 09:54:33;;;;;;;15.73;14.23;;;27.00;55.80;;;;;;5017467;28;20037;-51
2022/08/17 09:57:21;;;;;;;15.10;13.10;;;27.00;55.00;;;;;;5007945;28;20040;-46
2022/08/17 10:00:19;;;;;;;15.77;14.18;;;27.10;55.20;;;;;;5006772;28;20038;-47
2022/08/17 10:03:19;;;;;;;14.88;13.38;;;27.10;55.00;;;;;;5012399;28;20037;-46
2022/08/17 10:06:06;;;;;;;14.90;13.38;;;27.10;54.90;;;;;;5014342;28;20744;-49
2022/08/17 10:08:51;;;;;;;13.93;12.60;;;27.00;55.40;;;;;;5012265;28;20060;-49
2022/08/17 10:14:45;;;;;;;15.63;14.15;;;26.90;55.90;;;;;;5023199;28;20046;-50
2022/08/17 10:17:38;;;;;;;16.30;14.80;;;26.70;56.10;;;;;;4997194;28;20108;-49
2022/08/17 10:20:30;;;;;;;15.60;13.85;;;26.60;56.30;;;;;;5016294;28;20208;-48
2022/08/17 10:26:14;;;;;;;15.07;13.57;;;26.40;56.70;;;;;;5026430;28;20457;-49
2022/08/17 10:29:21;;;;;;;15.60;13.95;;;26.40;57.00;;;;;;5020526;28;20084;-45
2022/08/17 10:31:59;;;;;;;16.50;14.80;;;26.30;57.20;;;;;;5016829;28;20046;-50
2022/08/17 10:34:41;;;;;;;15.93;14.32;;;26.40;57.80;;;;;;5008018;28;20124;-48
2022/08/17 10:37:18;;;;;;;15.10;13.67;;;26.20;58.50;;;;;;5009778;28;20069;-49
2022/08/17 10:40:22;;;;;;;16.40;14.75;;;26.10;58.80;;;;;;4992528;28;20068;-47
2022/08/17 10:43:02;;;;;;;14.25;12.85;;;26.10;59.70;;;;;;5011895;28;20096;-49
2022/08/17 10:45:34;;;;;;;15.32;13.80;;;26.10;60.30;;;;;;5008159;28;20038;-49
2022/08/17 10:48:37;;;;;;;15.98;14.27;;;26.00;60.20;;;;;;5015788;28;20096;-46
2022/08/17 10:51:11;;;;;;;16.13;14.50;;;25.90;60.40;;;;;;5010731;28;20041;-48
2022/08/17 10:53:42;;;;;;;16.88;15.18;;;25.80;59.80;;;;;;5010882;28;20038;-46
2022/08/17 10:56:16;;;;;;;17.52;15.80;;;25.80;60.20;;;;;;5012602;28;20041;-47
2022/08/17 10:58:52;;;;;;;17.77;16.08;;;25.70;60.90;;;;;;5009377;28;20049;-48
2022/08/17 11:01:31;;;;;;;17.35;15.65;;;25.70;61.90;;;;;;5012374;28;20057;-51
2022/08/17 11:04:03;;;;;;;19.00;17.20;;;25.60;61.50;;;;;;5001498;28;20037;-47
2022/08/17 11:06:36;;;;;;;18.20;16.45;;;25.50;61.10;;;;;;5009796;28;20395;-46
2022/08/17 11:09:22;;;;;;;19.27;17.33;;;25.50;61.70;;;;;;5010767;28;20510;-49
2022/08/17 11:12:31;;;;;;;18.52;16.77;;;25.40;62.40;;;;;;5010740;28;20041;-50
2022/08/17 11:15:19;;;;;;;18.42;16.63;;;25.40;62.50;;;;;;4971017;28;20061;-48
2022/08/17 11:18:10;;;;;;;18.25;16.40;;;25.30;62.60;;;;;;5009239;28;20081;-50
2022/08/17 11:21:20;;;;;;;17.90;15.95;;;25.30;62.80;;;;;;4983660;28;20096;-51
2022/08/17 11:24:14;;;;;;;18.00;16.25;;;25.30;62.80;;;;;;5010527;28;20490;-50
2022/08/17 11:26:46;;;;;;;20.00;17.58;;;25.20;62.90;;;;;;5006462;28;20076;-47
2022/08/17 11:29:27;;;;;;;18.63;17.00;;;25.20;62.70;;;;;;5008356;28;20042;-46
2022/08/17 11:32:36;;;;;;;20.45;18.45;;;25.30;63.30;;;;;;5011444;28;20050;-47
2022/08/17 11:35:21;;;;;;;21.10;18.25;;;25.20;63.30;;;;;;5009124;28;20092;-49
2022/08/17 11:38:01;;;;;;;22.33;20.02;;;25.30;63.10;;;;;;5019473;28;20052;-49
2022/08/17 11:40:59;;;;;;;21.98;19.67;;;25.20;63.20;;;;;;5018233;28;20445;-49
2022/08/17 11:43:47;;;;;;;21.77;19.50;;;25.20;63.30;;;;;;5013368;28;20050;-51
2022/08/17 11:46:23;;;;;;;22.55;20.35;;;25.30;63.70;;;;;;5010230;28;20042;-48
2022/08/17 11:51:55;;;;;;;;;;;25.30;64.00;;;;;;5011414;28;20495;-46
2022/08/17 11:54:34;;;;;;;22.50;20.30;;;25.30;62.50;;;;;;5008424;28;19975;-48
2022/08/17 11:57:26;;;;;;;23.40;21.00;;;25.30;63.20;;;;;;5003909;28;20037;-50
2022/08/17 11:59:57;;;;;;;24.63;22.02;;;25.40;63.80;;;;;;5028112;28;20056;-48
2022/08/17 12:02:29;;;;;;;23.90;21.50;;;25.50;63.50;;;;;;5012928;28;20081;-50
2022/08/17 12:05:12;;;;;;;24.08;21.58;;;25.40;63.40;;;;;;5011925;28;20038;-50
2022/08/17 12:07:42;;;;;;;22.97;20.67;;;25.40;64.30;;;;;;5008573;28;20049;-46
2022/08/17 12:10:12;;;;;;;22.92;20.73;;;25.50;63.60;;;;;;4990188;28;20293;-46
2022/08/17 12:12:42;;;;;;;22.83;20.63;;;25.60;63.90;;;;;;4993221;28;20038;-47
2022/08/17 12:15:20;;;;;;;20.13;18.17;;;25.70;64.10;;;;;;5014090;28;20116;-52
2022/08/17 12:17:54;;;;;;;23.05;20.70;;;25.80;64.20;;;;;;5012252;28;20045;-53
2022/08/17 12:20:36;;;;;;;21.10;19.02;;;25.90;64.20;;;;;;4984033;28;20045;-47
2022/08/17 12:23:29;;;;;;;20.67;18.50;;;26.10;63.50;;;;;;5013211;28;20049;-48
2022/08/17 12:26:08;;;;;;;21.17;18.80;;;26.20;62.70;;;;;;5010852;28;20096;-49
2022/08/17 12:28:38;;;;;;;20.25;18.25;;;26.30;61.80;;;;;;5008047;28;20042;-51
2022/08/17 12:31:10;;;;;;;21.67;19.55;;;26.30;61.30;;;;;;5011265;28;20065;-51
2022/08/17 12:33:42;;;;;;;21.73;19.65;;;26.30;60.80;;;;;;5012741;28;20046;-47
2022/08/17 12:36:13;;;;;;;20.92;19.00;;;26.30;61.10;;;;;;5010817;28;21390;-48
2022/08/17 12:39:08;;;;;;;20.42;18.55;;;26.30;60.80;;;;;;4999195;28;20093;-53
2022/08/17 12:41:50;;;;;;;21.38;19.27;;;26.20;60.70;;;;;;5009498;28;20044;-49
2022/08/17 12:44:19;;;;;;;20.92;18.95;;;26.20;60.30;;;;;;5008559;28;20541;-48
2022/08/17 12:47:16;;;;;;;20.25;18.33;;;26.10;60.10;;;;;;5010030;28;20068;-50
2022/08/17 12:49:53;;;;;;;21.20;18.98;;;26.00;60.50;;;;;;5006727;28;20118;-47
2022/08/17 12:52:25;;;;;;;21.05;19.02;;;25.90;61.00;;;;;;5018284;28;20037;-48
2022/08/17 12:55:05;;;;;;;22.50;20.17;;;25.90;61.10;;;;;;5022472;28;20107;-47
2022/08/17 12:57:40;;;;;;;22.02;19.83;;;25.80;61.60;;;;;;5030585;28;20056;-47
2022/08/17 13:00:11;;;;;;;21.98;19.73;;;25.80;61.40;;;;;;5007790;28;20049;-46
2022/08/17 13:02:56;;;;;;;20.60;18.55;;;25.70;61.50;;;;;;5010676;28;20045;-51
2022/08/17 13:05:34;;;;;;;20.92;18.88;;;25.70;61.90;;;;;;5017811;28;20092;-53
2022/08/17 13:08:28;;;;;;;20.25;18.35;;;25.70;61.90;;;;;;5009242;28;20038;-49
2022/08/17 13:11:00;;;;;;;19.95;17.98;;;25.70;62.10;;;;;;5011011;28;20072;-52
2022/08/17 13:13:31;;;;;;;20.35;18.27;;;25.60;61.80;;;;;;5022694;28;20493;-47
2022/08/17 13:16:13;;;;;;;20.92;18.83;;;25.60;62.00;;;;;;5027737;28;20049;-51
2022/08/17 13:18:39;;;;;;;21.60;19.48;;;25.50;62.00;;;;;;5010795;28;20046;-48
2022/08/17 13:21:18;;;;;;;21.95;19.85;;;25.40;62.00;;;;;;5020519;28;20453;-49
2022/08/17 13:24:03;;;;;;;20.92;18.92;;;25.30;63.00;;;;;;5030931;28;20068;-50
2022/08/17 13:26:38;;;;;;;21.52;19.38;;;25.30;63.40;;;;;;5018467;28;20049;-48
2022/08/17 13:29:16;;;;;;;21.92;19.63;;;25.20;63.00;;;;;;5016127;28;20128;-48
2022/08/17 13:31:42;;;;;;;21.63;19.38;;;25.20;63.80;;;;;;5015521;28;20483;-46
2022/08/17 13:34:25;;;;;;;22.52;20.23;;;25.10;63.40;;;;;;5011240;28;20073;-51
2022/08/17 13:37:25;;;;;;;23.57;21.07;;;25.10;64.20;;;;;;5008736;28;20042;-47
2022/08/17 13:40:19;;;;;;;21.00;18.80;;;25.10;64.80;;;;;;5023822;28;20041;-51
2022/08/17 13:43:04;;;;;;;21.20;19.10;;;25.10;64.80;;;;;;5021927;28;20057;-49
2022/08/17 13:45:46;;;;;;;21.48;19.33;;;25.10;64.60;;;;;;5028156;28;20038;-52
2022/08/17 13:48:22;;;;;;;23.88;21.27;;;25.10;65.20;;;;;;5022058;28;20401;-47
2022/08/17 13:50:54;;;;;;;24.73;22.25;;;25.30;65.00;;;;;;5007855;28;20398;-51
2022/08/17 13:53:26;;;;;;;26.35;23.55;;;25.20;65.10;;;;;;5034180;28;20086;-50